Meath Environmental Platform

Observations for Trim Market St

Time AQI Temp °C Hum % Pres Pa CO μg/m³ H₂S μg/m³ NO μg/m³ NO₂ μg/m³ O₃ μg/m³ SO₂ μg/m³ PM1 μg/m³ PM2.5 μg/m³ PM10 μg/m³
Monday 24 August 2026
20:48 4 18.5 57 57,891 0.09 0.47 1.03 28.3 76.17 0 4.28 7.2 10.35
20:47 4 18.5 57 57,893 0.1 1.55 1.06 35.5 76.73 0 4.28 8.22 11.76
20:46 4 18.5 57 57,893 0.12 1.5 1.07 36.57 72.56 0 3.56 6.72 8.94
20:45 4 18.6 56 57,893 0.1 1.76 1.13 37.23 71.51 0 4.28 6.73 9.65
20:44 4 18.6 56 57,891 0.09 1.39 1.06 32.95 83.25 0 4.28 8.25 11.07
20:40 4 18.7 56 57,870 0.08 1.08 1.09 37.17 59.12 0 2.85 6.26 8.24
20:38 4 18.8 55 57,844 0.07 1.5 1 33.19 76.52 0 4.99 8.3 13.24
20:36 4 18.8 55 57,793 0.07 1.87 0.91 34.26 73.14 0 2.14 4.77 6.81
20:33 4 19 55 57,646 0.06 2.71 1.02 36.3 75.83 0 2.85 5.81 9.68
20:27 4 19.2 54 57,199 0.04 2.63 1.04 34.05 78.64 0 3.56 7.38 10.42
20:26 4 19.2 54 57,093 0.04 1.87 1.03 35.48 68.85 0 2.85 5.86 7.53
20:25 4 19.2 54 56,991 0.04 1.81 1.05 34.05 69.91 0 2.85 8.42 12.6
20:24 4 19.3 53 56,887 0.04 2.63 1.1 36.57 64.07 0 2.85 6.38 8.25
20:22 4 19.3 53 56,716 0.03 2.52 1.07 35.83 72.07 0 3.56 7.43 10.44
20:20 4 19.4 53 56,497 0.02 2.84 1.09 49.68 56.1 0 2.14 6.93 8.99
20:19 4 19.5 52 56,407 0.02 3.02 1.05 32.45 77.99 0 3.56 5.92 7.53
20:17 4 19.5 52 56,259 0.06 3.13 1.05 37.37 65.25 0 2.85 5.93 7.53
20:16 4 19.6 52 56,211 0.12 4 1.06 42.08 57.84 0 3.56 6.46 8.26
20:15 4 19.6 52 56,182 0.01 3.63 1.08 43.29 62.95 0 2.85 6.97 10.46
20:11 4 19.7 52 56,099 0.04 4.13 1.15 45.67 47.3 0 3.56 7 9.74